Time;durP1;ratioP1;P1;durP2;ratioP2;P2;SDS_P1;SDS_P2;PMS_P1;PMS_P2;Temp;Humidity;BMP_temperature;BMP_pressure;BME280_temperature;BME280_humidity;BME280_pressure;Samples;Min_cycle;Max_cycle;Signal;HPM_P1;HPM_P2
2023/12/21 00:05:13;;;;;;;2.50;2.30;;;7.50;99.90;;;;;;5099998;28;20223;-78
2023/12/21 00:07:40;;;;;;;3.10;2.80;;;7.50;99.90;;;;;;5101537;28;20667;-82
2023/12/21 00:10:38;;;;;;;3.03;2.83;;;7.50;99.90;;;;;;5113658;28;20223;-83
2023/12/21 00:13:05;;;;;;;3.88;2.40;;;7.40;99.90;;;;;;5096189;28;20657;-79
2023/12/21 00:15:32;;;;;;;3.58;3.28;;;7.40;99.90;;;;;;5096948;28;20277;-83
2023/12/21 00:18:00;;;;;;;4.70;4.10;;;7.40;99.90;;;;;;5091712;28;20229;-83
2023/12/21 00:20:38;;;;;;;6.25;5.60;;;7.40;99.90;;;;;;5090994;27;20242;-78
2023/12/21 00:23:06;;;;;;;6.22;5.13;;;7.40;99.90;;;;;;5093601;28;20227;-83
2023/12/21 00:25:32;;;;;;;4.05;3.55;;;7.40;99.90;;;;;;5094888;28;20223;-83
2023/12/21 00:27:59;;;;;;;3.63;3.33;;;7.40;99.90;;;;;;5089064;28;20254;-78
2023/12/21 00:30:26;;;;;;;3.78;3.38;;;7.50;99.90;;;;;;5091153;28;20231;-83
2023/12/21 00:32:54;;;;;;;6.68;5.55;;;7.50;99.90;;;;;;5078946;28;20236;-83
2023/12/21 00:35:22;;;;;;;3.72;3.13;;;7.50;99.90;;;;;;5078204;28;20673;-83
2023/12/21 00:37:51;;;;;;;5.45;3.20;;;7.50;99.90;;;;;;5096611;28;20230;-78
2023/12/21 00:40:19;;;;;;;4.75;4.35;;;7.40;99.90;;;;;;5094847;28;20276;-79
2023/12/21 00:42:46;;;;;;;4.38;3.92;;;7.50;99.90;;;;;;5095746;28;20308;-78
2023/12/21 00:45:14;;;;;;;4.75;4.15;;;7.50;99.90;;;;;;5081804;28;20688;-79
2023/12/21 00:47:41;;;;;;;11.02;9.18;;;7.50;99.90;;;;;;5075507;28;20277;-78
2023/12/21 00:50:09;;;;;;;22.15;15.15;;;7.60;99.90;;;;;;5085553;28;20254;-83
2023/12/21 00:52:36;;;;;;;15.73;11.10;;;7.60;99.90;;;;;;5096014;28;20234;-83
2023/12/21 00:55:08;;;;;;;38.67;20.67;;;7.70;99.90;;;;;;5095102;28;20227;-83
2023/12/21 00:57:35;;;;;;;9.45;7.18;;;7.60;99.90;;;;;;5095723;28;20219;-83
2023/12/21 01:00:07;;;;;;;5.80;4.50;;;7.70;99.90;;;;;;5095785;28;20220;-78
2023/12/21 01:02:36;;;;;;;10.02;7.70;;;7.80;99.90;;;;;;5095149;28;20227;-78
2023/12/21 01:05:03;;;;;;;27.00;15.00;;;7.80;99.90;;;;;;5095487;28;20219;-79
2023/12/21 01:07:30;;;;;;;12.95;9.85;;;7.90;99.90;;;;;;5074320;28;20248;-78
2023/12/21 01:09:57;;;;;;;14.02;10.45;;;7.90;99.90;;;;;;5073513;28;20235;-84
2023/12/21 01:12:31;;;;;;;6.90;5.57;;;8.00;99.90;;;;;;5073509;28;20232;-78
2023/12/21 01:14:59;;;;;;;8.60;5.43;;;8.00;99.90;;;;;;5073743;28;20243;-79
2023/12/21 01:17:26;;;;;;;9.23;6.30;;;8.10;99.90;;;;;;5072322;28;20228;-78
2023/12/21 01:19:53;;;;;;;13.85;10.82;;;8.10;99.90;;;;;;5079949;28;20215;-78
2023/12/21 01:22:20;;;;;;;11.38;8.98;;;8.10;99.90;;;;;;5092299;28;20235;-78
2023/12/21 01:24:47;;;;;;;6.70;6.10;;;8.20;99.90;;;;;;5093653;28;20302;-78
2023/12/21 01:27:14;;;;;;;15.55;11.57;;;8.20;99.90;;;;;;5093260;28;20696;-79
2023/12/21 01:29:42;;;;;;;15.55;8.75;;;8.30;99.90;;;;;;5082777;28;20270;-79
2023/12/21 01:32:09;;;;;;;16.00;9.82;;;8.40;99.90;;;;;;5092831;28;20257;-79
2023/12/21 01:34:36;;;;;;;17.30;11.77;;;8.50;99.90;;;;;;5094608;28;20227;-79
2023/12/21 01:37:04;;;;;;;10.65;9.60;;;8.60;99.90;;;;;;5095201;28;20224;-79
2023/12/21 01:39:29;;;;;;;6.70;4.95;;;8.60;99.90;;;;;;5094497;28;20239;-79
2023/12/21 01:41:57;;;;;;;30.17;19.00;;;8.60;99.90;;;;;;5094996;28;20231;-79
2023/12/21 01:44:23;;;;;;;5.75;5.07;;;8.60;99.90;;;;;;5094340;28;20553;-79
2023/12/21 01:46:52;;;;;;;4.63;4.10;;;8.70;99.90;;;;;;5094458;28;20230;-78
2023/12/21 01:49:39;;;;;;;14.45;10.10;;;8.70;99.90;;;;;;5092461;28;20227;-79
2023/12/21 01:52:07;;;;;;;6.13;4.90;;;8.80;99.90;;;;;;5056830;28;20333;-85
2023/12/21 01:54:35;;;;;;;6.20;5.45;;;8.90;99.90;;;;;;5074601;28;20689;-84
2023/12/21 01:57:02;;;;;;;6.30;4.60;;;8.90;99.90;;;;;;5074954;28;20681;-85
2023/12/21 01:59:30;;;;;;;31.88;17.27;;;8.90;99.90;;;;;;5073556;28;20219;-84
2023/12/21 02:01:59;;;;;;;17.58;11.10;;;8.80;99.90;;;;;;5080946;28;20667;-84
2023/12/21 02:04:26;;;;;;;9.48;8.45;;;8.80;99.90;;;;;;5093839;28;20228;-78
2023/12/21 02:06:53;;;;;;;29.63;19.75;;;8.90;99.90;;;;;;5094084;28;20250;-79
2023/12/21 02:09:20;;;;;;;9.07;5.82;;;9.00;99.90;;;;;;5094249;28;20306;-79
2023/12/21 02:11:47;;;;;;;4.85;4.43;;;9.00;99.90;;;;;;5095073;28;20223;-79
2023/12/21 02:14:14;;;;;;;14.00;9.07;;;9.10;99.90;;;;;;5093497;28;20249;-79
2023/12/21 02:16:48;;;;;;;3.85;3.47;;;9.10;99.90;;;;;;5094789;28;20303;-79
2023/12/21 02:19:19;;;;;;;4.20;3.38;;;9.10;99.90;;;;;;5092384;28;20247;-79
2023/12/21 02:21:47;;;;;;;15.13;10.98;;;9.10;99.90;;;;;;5094239;28;20245;-78
2023/12/21 02:24:16;;;;;;;11.60;8.48;;;9.10;99.90;;;;;;5093889;28;20254;-83
2023/12/21 02:26:44;;;;;;;11.82;8.48;;;9.10;99.90;;;;;;5093675;28;20219;-83
2023/12/21 02:29:11;;;;;;;18.77;13.48;;;9.10;99.90;;;;;;5093637;28;20227;-79
2023/12/21 02:31:39;;;;;;;10.07;7.07;;;9.10;99.90;;;;;;5094025;28;20677;-78
2023/12/21 02:34:07;;;;;;;18.30;13.27;;;9.10;99.90;;;;;;5094025;28;20227;-83
2023/12/21 02:36:33;;;;;;;8.95;7.13;;;9.10;99.90;;;;;;5094566;28;20315;-83
2023/12/21 02:39:01;;;;;;;13.98;9.93;;;9.10;99.90;;;;;;5095620;28;20223;-84
2023/12/21 02:41:31;;;;;;;4.68;4.28;;;9.10;99.90;;;;;;5094267;28;20231;-78
2023/12/21 02:43:58;;;;;;;7.85;5.90;;;9.20;99.90;;;;;;5094065;28;20223;-84
2023/12/21 02:46:26;;;;;;;3.42;3.10;;;9.20;99.90;;;;;;5093392;28;20219;-83
2023/12/21 02:48:53;;;;;;;29.35;21.92;;;9.20;99.90;;;;;;5092913;28;20280;-78
2023/12/21 02:51:20;;;;;;;4.30;3.30;;;9.20;99.90;;;;;;5074067;28;20224;-84
2023/12/21 02:53:47;;;;;;;27.98;19.50;;;9.30;99.90;;;;;;5073963;28;20642;-84
2023/12/21 02:56:14;;;;;;;19.50;14.88;;;9.30;99.90;;;;;;5071196;28;20220;-83
2023/12/21 02:58:42;;;;;;;8.00;5.90;;;9.30;99.90;;;;;;5073308;28;20234;-84
2023/12/21 03:01:09;;;;;;;13.57;9.60;;;9.40;99.90;;;;;;5073354;28;20262;-84
2023/12/21 03:03:36;;;;;;;1.92;1.83;;;9.30;99.90;;;;;;5073136;28;20216;-83
2023/12/21 03:06:07;;;;;;;15.70;11.35;;;9.30;99.90;;;;;;5073348;28;20224;-78
2023/12/21 03:08:34;;;;;;;8.30;6.28;;;9.30;99.90;;;;;;5072881;28;20646;-79
2023/12/21 03:11:01;;;;;;;3.63;3.22;;;9.30;99.90;;;;;;5072622;28;20224;-79
2023/12/21 03:13:28;;;;;;;4.85;3.97;;;9.30;99.90;;;;;;5072580;28;20227;-79
2023/12/21 03:15:56;;;;;;;3.97;3.67;;;9.40;99.90;;;;;;5073310;28;20602;-78
2023/12/21 03:18:23;;;;;;;8.43;6.63;;;9.40;99.90;;;;;;5072641;28;20243;-78
2023/12/21 03:20:50;;;;;;;14.02;10.57;;;9.40;99.90;;;;;;5086178;28;20199;-77
2023/12/21 03:23:17;;;;;;;7.82;5.97;;;9.40;99.90;;;;;;5092751;28;20223;-78
2023/12/21 03:25:44;;;;;;;17.20;13.48;;;9.50;99.90;;;;;;5093527;28;20223;-77
2023/12/21 03:28:14;;;;;;;5.30;4.70;;;9.50;99.90;;;;;;5091870;28;20272;-78
2023/12/21 03:30:40;;;;;;;15.23;11.10;;;9.50;99.90;;;;;;5093202;28;20215;-83
2023/12/21 03:33:09;;;;;;;16.45;14.65;;;9.50;99.90;;;;;;5092593;28;20234;-83
2023/12/21 03:35:36;;;;;;;13.38;8.90;;;9.50;99.90;;;;;;5093172;28;20223;-83
2023/12/21 03:38:03;;;;;;;4.90;4.50;;;9.50;99.90;;;;;;5081096;28;20227;-83
2023/12/21 03:40:31;;;;;;;16.65;11.20;;;9.60;99.90;;;;;;5077189;28;20616;-78
2023/12/21 03:42:58;;;;;;;13.20;10.48;;;9.60;99.90;;;;;;5096671;28;20321;-81
2023/12/21 03:45:25;;;;;;;14.05;11.20;;;9.60;99.90;;;;;;5097239;28;20221;-83
2023/12/21 03:47:52;;;;;;;11.82;7.60;;;9.70;99.90;;;;;;5097119;28;20257;-83
2023/12/21 03:50:23;;;;;;;2.92;2.63;;;9.70;99.90;;;;;;5085943;28;20231;-78
2023/12/21 03:52:50;;;;;;;3.88;3.40;;;9.70;99.90;;;;;;5077045;28;20228;-83
2023/12/21 03:55:20;;;;;;;13.43;9.35;;;9.70;99.90;;;;;;5076445;28;20682;-83
2023/12/21 03:57:47;;;;;;;10.15;8.32;;;9.80;99.90;;;;;;5076830;28;20220;-83
2023/12/21 04:00:18;;;;;;;14.07;11.07;;;9.80;99.90;;;;;;5076173;28;20223;-78
2023/12/21 04:02:45;;;;;;;10.57;9.00;;;9.80;99.90;;;;;;5076857;28;20630;-79
2023/12/21 04:05:12;;;;;;;4.18;3.78;;;9.80;99.90;;;;;;5076128;28;20219;-83
2023/12/21 04:07:41;;;;;;;6.93;5.15;;;9.80;99.90;;;;;;5076918;28;20788;-77
2023/12/21 04:10:09;;;;;;;13.55;9.73;;;9.80;99.90;;;;;;5076014;28;20246;-78
2023/12/21 04:12:36;;;;;;;7.90;6.65;;;9.90;99.90;;;;;;5076741;28;20233;-83
2023/12/21 04:15:03;;;;;;;6.18;4.60;;;9.90;99.90;;;;;;5075933;28;20301;-78
2023/12/21 04:17:31;;;;;;;26.13;15.32;;;9.90;99.90;;;;;;5076592;28;20555;-83
2023/12/21 04:19:58;;;;;;;5.43;4.93;;;9.90;99.90;;;;;;5085802;28;20219;-83
2023/12/21 04:22:25;;;;;;;11.35;8.52;;;10.00;99.90;;;;;;5102968;28;20223;-83
2023/12/21 04:24:53;;;;;;;6.53;5.88;;;9.90;99.90;;;;;;5115845;28;20227;-83
2023/12/21 04:27:20;;;;;;;5.30;4.60;;;10.00;99.90;;;;;;5114322;28;20234;-83
2023/12/21 04:29:49;;;;;;;6.00;4.38;;;10.00;99.90;;;;;;5113891;28;20219;-84
2023/12/21 04:32:16;;;;;;;7.78;3.50;;;10.00;99.90;;;;;;5105235;28;20231;-83
2023/12/21 04:34:43;;;;;;;6.63;5.05;;;10.00;99.90;;;;;;5101702;28;20322;-83
2023/12/21 04:37:10;;;;;;;10.77;8.13;;;10.00;99.90;;;;;;5097687;28;20227;-83
2023/12/21 04:39:37;;;;;;;25.23;17.25;;;10.00;99.90;;;;;;5097400;28;20513;-78
2023/12/21 04:42:06;;;;;;;8.70;7.10;;;10.00;99.90;;;;;;5095535;28;20227;-83
2023/12/21 04:44:33;;;;;;;4.05;3.65;;;10.00;99.90;;;;;;5096865;28;20239;-82
2023/12/21 04:47:00;;;;;;;26.83;15.48;;;10.10;99.90;;;;;;5096293;28;20580;-82
2023/12/21 04:49:27;;;;;;;13.45;11.02;;;10.10;99.90;;;;;;5095835;28;20215;-83
2023/12/21 04:51:54;;;;;;;7.78;5.55;;;10.10;99.90;;;;;;5096083;28;20234;-78
2023/12/21 04:54:21;;;;;;;6.00;4.95;;;10.10;99.90;;;;;;5095646;28;20227;-78
2023/12/21 04:56:48;;;;;;;21.08;17.98;;;10.10;99.90;;;;;;5096315;28;20249;-83
2023/12/21 04:59:17;;;;;;;10.60;7.45;;;10.10;99.90;;;;;;5095295;28;20310;-78
2023/12/21 05:01:44;;;;;;;21.45;16.25;;;10.10;99.90;;;;;;5096062;28;20215;-78
2023/12/21 05:04:11;;;;;;;11.25;10.05;;;10.10;99.90;;;;;;5095097;28;20305;-83
2023/12/21 05:06:38;;;;;;;4.28;3.88;;;10.10;99.90;;;;;;5095904;28;20223;-83
2023/12/21 05:09:05;;;;;;;4.78;4.32;;;10.20;99.90;;;;;;5096137;28;20567;-81
2023/12/21 05:11:32;;;;;;;5.13;3.38;;;10.20;99.90;;;;;;5096080;28;20593;-82
2023/12/21 05:13:59;;;;;;;6.10;5.00;;;10.20;99.90;;;;;;5095780;28;20223;-82
2023/12/21 05:16:28;;;;;;;11.13;8.68;;;10.10;99.90;;;;;;5094923;28;20235;-82
2023/12/21 05:18:55;;;;;;;9.20;7.47;;;10.10;99.90;;;;;;5095619;28;20225;-77
2023/12/21 05:21:22;;;;;;;8.95;7.30;;;10.20;99.90;;;;;;5094881;28;20227;-82
2023/12/21 05:23:49;;;;;;;26.85;23.02;;;10.20;99.90;;;;;;5095578;28;20242;-77
2023/12/21 05:26:17;;;;;;;8.82;6.95;;;10.20;99.90;;;;;;5095001;28;20235;-82
2023/12/21 05:28:43;;;;;;;19.25;11.70;;;10.20;99.90;;;;;;5089765;28;20224;-77
2023/12/21 05:31:12;;;;;;;8.07;7.28;;;10.20;99.90;;;;;;5094884;28;20261;-77
2023/12/21 05:33:40;;;;;;;9.25;4.68;;;10.20;99.90;;;;;;5095477;28;20231;-77
2023/12/21 05:36:08;;;;;;;12.25;9.00;;;10.20;99.90;;;;;;5093909;28;20228;-77
2023/12/21 05:38:35;;;;;;;11.07;7.90;;;10.20;99.90;;;;;;5095256;28;20668;-82
2023/12/21 05:41:02;;;;;;;3.50;3.20;;;10.20;99.90;;;;;;5095372;28;20306;-82
2023/12/21 05:43:29;;;;;;;5.65;4.95;;;10.30;99.90;;;;;;5094535;28;20227;-82
2023/12/21 05:45:56;;;;;;;7.20;6.32;;;10.30;99.90;;;;;;5095330;28;20596;-82
2023/12/21 05:48:26;;;;;;;6.72;5.47;;;10.30;99.90;;;;;;5084679;28;20319;-77
2023/12/21 05:50:55;;;;;;;9.70;8.70;;;10.30;99.90;;;;;;5093887;28;20219;-77
2023/12/21 05:53:25;;;;;;;4.10;3.70;;;10.40;99.90;;;;;;5094504;28;20227;-77
2023/12/21 05:55:52;;;;;;;9.82;7.65;;;10.40;99.90;;;;;;5094638;28;20238;-82
2023/12/21 05:58:19;;;;;;;5.50;4.53;;;10.40;99.90;;;;;;5094992;28;20235;-82
2023/12/21 06:00:50;;;;;;;3.85;3.45;;;10.40;99.90;;;;;;5094360;28;20227;-77
2023/12/21 06:03:17;;;;;;;3.22;2.90;;;10.40;99.90;;;;;;5094296;28;20288;-82
2023/12/21 06:05:47;;;;;;;5.50;4.45;;;10.40;99.90;;;;;;5093716;28;20226;-83
2023/12/21 06:08:15;;;;;;;7.40;5.25;;;10.40;99.90;;;;;;5094710;28;20219;-82
2023/12/21 06:10:42;;;;;;;21.63;15.57;;;10.40;99.90;;;;;;5093549;28;20254;-83
2023/12/21 06:13:09;;;;;;;14.35;11.95;;;10.40;99.90;;;;;;5094505;28;20227;-82
2023/12/21 06:15:36;;;;;;;4.55;4.13;;;10.40;99.90;;;;;;5094061;28;20231;-83
2023/12/21 06:18:04;;;;;;;13.32;10.02;;;10.30;99.90;;;;;;5094448;28;20220;-84
2023/12/21 06:20:34;;;;;;;28.35;22.08;;;10.40;99.90;;;;;;5093740;28;20310;-83
2023/12/21 06:23:01;;;;;;;9.35;8.45;;;10.30;99.90;;;;;;5094635;28;20232;-83
2023/12/21 06:25:30;;;;;;;16.50;13.02;;;10.40;99.90;;;;;;5093988;28;20254;-83
2023/12/21 06:27:57;;;;;;;16.95;11.52;;;10.40;99.90;;;;;;5094045;28;20235;-83
2023/12/21 06:30:24;;;;;;;3.60;3.30;;;10.40;99.90;;;;;;5093836;28;20280;-83
2023/12/21 06:32:51;;;;;;;4.05;3.65;;;10.40;99.90;;;;;;5094139;28;20250;-83
2023/12/21 06:35:18;;;;;;;9.45;7.05;;;10.40;99.90;;;;;;5094000;28;20288;-83
2023/12/21 06:37:45;;;;;;;4.03;3.72;;;10.40;99.90;;;;;;5094210;28;20302;-83
2023/12/21 06:40:13;;;;;;;6.97;6.35;;;10.40;99.90;;;;;;5094077;28;20310;-83
2023/12/21 06:42:41;;;;;;;7.25;5.25;;;10.40;99.90;;;;;;5093490;28;20231;-83
2023/12/21 06:45:09;;;;;;;13.20;11.43;;;10.40;99.90;;;;;;5093884;28;20307;-83
2023/12/21 06:47:36;;;;;;;6.57;5.95;;;10.40;99.90;;;;;;5093349;28;20227;-83
2023/12/21 06:50:03;;;;;;;14.02;9.57;;;10.40;99.90;;;;;;5094047;28;20672;-83
2023/12/21 06:52:30;;;;;;;12.88;9.35;;;10.40;99.90;;;;;;5092493;28;20413;-83
2023/12/21 06:54:58;;;;;;;5.32;4.82;;;10.40;99.90;;;;;;5093752;28;20306;-83
2023/12/21 06:57:25;;;;;;;4.43;3.53;;;10.50;99.90;;;;;;5093966;28;20252;-83
2023/12/21 06:59:53;;;;;;;5.82;4.38;;;10.50;99.90;;;;;;5093768;28;20242;-83
2023/12/21 07:02:20;;;;;;;3.20;2.90;;;10.50;99.90;;;;;;5093930;28;20235;-83
2023/12/21 07:04:47;;;;;;;3.90;3.60;;;10.50;99.90;;;;;;5093554;28;20661;-83
2023/12/21 07:07:14;;;;;;;4.03;3.50;;;10.50;99.90;;;;;;5093983;28;20227;-83
2023/12/21 07:09:42;;;;;;;4.60;4.20;;;10.50;99.90;;;;;;5093431;28;20235;-83
2023/12/21 07:12:12;;;;;;;2.28;2.08;;;10.50;99.90;;;;;;5095971;28;20315;-83
2023/12/21 07:14:40;;;;;;;3.78;3.15;;;10.40;99.90;;;;;;5094409;28;20223;-84
2023/12/21 07:17:11;;;;;;;2.90;2.58;;;10.40;99.90;;;;;;5092851;28;20227;-84
2023/12/21 07:19:38;;;;;;;5.28;4.78;;;10.40;99.90;;;;;;5086745;28;20226;-84
2023/12/21 07:22:05;;;;;;;4.00;3.60;;;10.30;99.90;;;;;;5072635;28;20224;-84
2023/12/21 07:24:32;;;;;;;5.20;4.70;;;10.30;99.90;;;;;;5072493;28;20685;-84
2023/12/21 07:26:59;;;;;;;8.95;7.25;;;10.30;99.90;;;;;;5077690;28;20268;-83
2023/12/21 07:29:26;;;;;;;5.85;4.03;;;10.20;99.90;;;;;;5092553;28;20227;-83
2023/12/21 07:31:53;;;;;;;3.83;2.03;;;10.20;99.90;;;;;;5086827;28;20223;-83
2023/12/21 07:34:22;;;;;;;6.68;4.47;;;10.20;99.90;;;;;;5072524;28;20545;-83
2023/12/21 07:36:49;;;;;;;12.30;8.02;;;10.20;99.90;;;;;;5073135;28;20682;-83
2023/12/21 07:39:16;;;;;;;6.20;5.70;;;10.10;99.90;;;;;;5071879;28;20257;-82
2023/12/21 07:45:11;;;;;;;5.25;3.58;;;10.00;99.90;;;;;;4963743;28;20305;-83
2023/12/21 07:47:57;;;;;;;2.00;1.80;;;9.90;99.90;;;;;;4972312;28;20239;-83
2023/12/21 07:50:27;;;;;;;3.83;2.95;;;9.90;99.90;;;;;;5062394;28;20674;-82
2023/12/21 07:52:56;;;;;;;3.75;1.90;;;9.80;99.90;;;;;;5073833;28;20568;-83
2023/12/21 07:55:23;;;;;;;1.70;1.60;;;9.80;99.90;;;;;;5072167;28;20223;-78
2023/12/21 07:57:50;;;;;;;2.35;2.15;;;9.80;99.90;;;;;;5073048;28;20224;-83
2023/12/21 08:00:17;;;;;;;5.00;4.32;;;9.80;99.90;;;;;;5073039;28;20247;-83
2023/12/21 08:02:45;;;;;;;1.70;1.60;;;9.70;99.90;;;;;;5073288;28;20224;-84
2023/12/21 08:05:12;;;;;;;3.42;1.50;;;9.70;99.90;;;;;;5072123;28;20258;-83
2023/12/21 08:07:44;;;;;;;1.60;1.50;;;9.80;99.90;;;;;;5073463;28;20247;-83
2023/12/21 08:10:11;;;;;;;2.08;1.98;;;9.70;99.90;;;;;;5072895;28;20235;-78
2023/12/21 08:12:38;;;;;;;2.25;2.05;;;9.70;99.90;;;;;;5073073;28;20787;-84
2023/12/21 08:15:06;;;;;;;2.72;2.08;;;9.70;99.90;;;;;;5063816;28;20227;-78
2023/12/21 08:17:34;;;;;;;1.83;1.73;;;9.70;99.90;;;;;;5072922;28;20220;-78
2023/12/21 08:20:01;;;;;;;2.42;2.33;;;9.70;99.90;;;;;;5073005;28;20224;-78
2023/12/21 08:22:28;;;;;;;4.70;4.25;;;9.70;99.90;;;;;;5072310;28;20224;-78
2023/12/21 08:24:57;;;;;;;5.90;5.30;;;9.70;99.90;;;;;;5072818;28;20224;-78
2023/12/21 08:27:24;;;;;;;2.42;2.28;;;9.60;99.90;;;;;;5073611;28;20285;-78
2023/12/21 08:29:52;;;;;;;1.80;1.70;;;9.70;99.90;;;;;;5076939;28;20251;-78
2023/12/21 08:32:19;;;;;;;2.17;1.60;;;9.70;99.90;;;;;;5075825;28;20303;-78
2023/12/21 08:34:46;;;;;;;1.40;1.30;;;9.70;99.90;;;;;;5077399;28;20254;-78
2023/12/21 08:37:13;;;;;;;1.70;1.48;;;9.70;99.90;;;;;;5076020;28;20289;-78
2023/12/21 08:39:41;;;;;;;2.30;2.10;;;9.70;99.90;;;;;;5079326;28;20224;-78
2023/12/21 08:42:10;;;;;;;1.17;1.08;;;9.70;99.90;;;;;;5079456;28;20287;-79
2023/12/21 08:44:37;;;;;;;2.20;1.65;;;9.70;99.90;;;;;;5080410;28;20228;-79
2023/12/21 08:47:05;;;;;;;1.38;1.20;;;9.70;99.90;;;;;;5076849;28;20223;-83
2023/12/21 08:49:32;;;;;;;2.70;1.73;;;9.70;99.90;;;;;;5076340;28;20250;-83
2023/12/21 08:51:59;;;;;;;3.17;1.80;;;9.70;99.90;;;;;;5076073;28;20233;-83
2023/12/21 08:54:27;;;;;;;2.10;1.35;;;9.70;99.90;;;;;;5076035;28;20248;-83
2023/12/21 08:56:54;;;;;;;2.25;1.90;;;9.60;99.90;;;;;;5075941;28;20223;-78
2023/12/21 08:59:26;;;;;;;0.90;0.90;;;9.60;99.90;;;;;;5074856;28;20696;-78
2023/12/21 09:01:56;;;;;;;1.90;1.10;;;9.60;99.90;;;;;;5075489;28;20605;-79
2023/12/21 09:04:23;;;;;;;2.40;2.15;;;9.60;99.90;;;;;;5075110;28;20224;-78
2023/12/21 09:06:50;;;;;;;1.13;1.00;;;9.70;99.90;;;;;;5075869;28;20220;-78
2023/12/21 09:09:17;;;;;;;1.13;1.00;;;9.70;99.90;;;;;;5075135;28;20224;-78
2023/12/21 09:11:45;;;;;;;1.55;1.20;;;9.60;99.90;;;;;;5075161;28;20220;-83
2023/12/21 09:14:13;;;;;;;1.38;1.27;;;9.60;99.90;;;;;;5074775;28;20250;-79
2023/12/21 09:16:41;;;;;;;1.52;1.00;;;9.70;99.90;;;;;;5075368;28;20260;-84
2023/12/21 09:19:08;;;;;;;0.80;0.70;;;9.70;99.90;;;;;;5075312;28;20244;-83
2023/12/21 09:21:37;;;;;;;0.82;0.80;;;9.60;99.90;;;;;;5074987;28;20231;-83
2023/12/21 09:24:04;;;;;;;1.27;1.13;;;9.60;99.90;;;;;;5075021;28;20230;-83
2023/12/21 09:26:32;;;;;;;1.20;1.10;;;9.60;99.90;;;;;;5074616;28;20232;-78
2023/12/21 09:28:59;;;;;;;1.35;1.25;;;9.60;99.90;;;;;;5073484;28;20305;-78
2023/12/21 09:31:27;;;;;;;0.80;0.80;;;9.50;99.90;;;;;;5086889;28;20303;-79
2023/12/21 09:33:55;;;;;;;1.65;0.88;;;9.50;99.90;;;;;;5094105;28;20288;-79
2023/12/21 09:36:22;;;;;;;2.25;1.42;;;9.60;99.90;;;;;;5074353;28;20255;-78
2023/12/21 09:38:49;;;;;;;2.38;1.65;;;9.50;99.90;;;;;;5086190;28;20696;-79
2023/12/21 09:41:16;;;;;;;0.85;0.73;;;9.50;99.90;;;;;;5093364;28;20223;-83
2023/12/21 09:43:46;;;;;;;1.70;1.20;;;9.60;99.90;;;;;;5095213;28;20682;-84
2023/12/21 09:46:15;;;;;;;1.40;1.00;;;9.60;99.90;;;;;;5093209;28;20212;-84
2023/12/21 09:48:43;;;;;;;2.25;1.95;;;9.70;99.90;;;;;;5094707;28;20507;-84
2023/12/21 09:51:15;;;;;;;2.00;1.88;;;9.60;99.90;;;;;;5085077;28;20265;-78
2023/12/21 09:53:46;;;;;;;2.88;2.35;;;9.60;99.90;;;;;;5084171;28;20228;-78
2023/12/21 09:56:15;;;;;;;4.53;3.55;;;9.60;99.90;;;;;;5094285;28;20227;-79
2023/12/21 09:58:44;;;;;;;2.60;2.25;;;9.70;99.90;;;;;;5093745;28;20231;-78
2023/12/21 10:01:17;;;;;;;4.90;4.18;;;9.70;99.90;;;;;;5090929;28;20222;-78
2023/12/21 10:03:45;;;;;;;4.90;1.55;;;9.70;99.90;;;;;;5087167;28;20216;-78
2023/12/21 10:06:29;;;;;;;0.80;0.75;;;9.70;99.90;;;;;;5084185;28;20224;-79
2023/12/21 10:08:56;;;;;;;1.25;0.90;;;9.80;99.90;;;;;;5093738;28;20297;-83
2023/12/21 10:11:23;;;;;;;1.65;1.55;;;9.70;99.90;;;;;;5094423;28;20219;-79
2023/12/21 10:13:53;;;;;;;1.23;1.00;;;9.80;99.90;;;;;;5092990;28;20276;-79
2023/12/21 10:16:26;;;;;;;1.40;1.30;;;9.80;99.90;;;;;;5094322;28;20292;-78
2023/12/21 10:18:53;;;;;;;2.42;1.65;;;9.80;99.90;;;;;;5084973;28;20227;-83
2023/12/21 10:21:21;;;;;;;1.27;1.10;;;9.80;99.90;;;;;;5093554;28;20231;-83
2023/12/21 10:23:50;;;;;;;1.15;1.02;;;9.80;99.90;;;;;;5093634;28;20242;-78
2023/12/21 10:26:17;;;;;;;2.45;1.42;;;9.90;99.90;;;;;;5093577;28;20250;-79
2023/12/21 10:28:54;;;;;;;1.63;1.42;;;9.90;99.90;;;;;;5094283;28;20227;-79
2023/12/21 10:34:02;;;;;;;2.70;2.05;;;10.00;99.90;;;;;;5429016;22;20297;-84
2023/12/21 10:36:32;;;;;;;1.48;1.38;;;10.00;99.90;;;;;;5114490;28;20279;-84
2023/12/21 10:39:00;;;;;;;1.55;1.40;;;10.10;99.90;;;;;;5102855;28;20218;-78
2023/12/21 10:41:27;;;;;;;2.55;0.80;;;10.10;99.90;;;;;;5113116;28;20228;-84
2023/12/21 10:44:00;;;;;;;0.70;0.70;;;10.10;99.90;;;;;;5113660;28;20283;-83
2023/12/21 10:46:34;;;;;;;2.17;1.80;;;10.00;99.90;;;;;;5113820;28;20222;-79
2023/12/21 10:49:02;;;;;;;4.05;1.60;;;10.10;99.90;;;;;;5115433;28;20309;-83
2023/12/21 10:51:30;;;;;;;2.08;1.48;;;10.10;99.90;;;;;;5114149;28;20284;-79
2023/12/21 10:54:00;;;;;;;1.58;0.98;;;10.10;99.90;;;;;;5113535;28;20242;-79
2023/12/21 10:56:30;;;;;;;1.15;1.05;;;10.10;99.90;;;;;;5113684;28;20223;-84
2023/12/21 10:59:02;;;;;;;1.00;0.90;;;10.10;99.90;;;;;;5113699;28;20227;-84
2023/12/21 11:01:30;;;;;;;3.50;3.20;;;10.10;99.90;;;;;;5089776;28;20565;-78
2023/12/21 11:04:00;;;;;;;5.00;4.50;;;10.10;99.90;;;;;;5091727;28;20227;-78
2023/12/21 11:06:28;;;;;;;1.80;1.55;;;10.20;99.90;;;;;;5092993;28;20677;-78
2023/12/21 11:08:55;;;;;;;1.02;0.80;;;10.10;99.90;;;;;;5092252;28;20567;-79
2023/12/21 11:11:25;;;;;;;2.60;2.38;;;10.10;99.90;;;;;;5093273;28;20295;-78
2023/12/21 11:14:02;;;;;;;1.25;0.90;;;10.10;99.90;;;;;;5093429;28;20684;-78
2023/12/21 11:16:34;;;;;;;1.20;1.10;;;10.20;99.90;;;;;;5094129;28;20223;-78
2023/12/21 11:19:06;;;;;;;1.70;1.40;;;10.20;99.90;;;;;;5092841;28;20215;-83
2023/12/21 11:21:34;;;;;;;2.35;1.95;;;10.30;99.90;;;;;;5093157;28;20215;-83
2023/12/21 11:24:02;;;;;;;1.65;0.93;;;10.40;99.90;;;;;;5092789;28;20245;-78
2023/12/21 11:26:31;;;;;;;0.95;0.90;;;10.30;99.90;;;;;;5092829;28;20572;-83
2023/12/21 11:29:05;;;;;;;1.17;1.08;;;10.30;99.90;;;;;;5091805;28;20216;-83
2023/12/21 11:31:39;;;;;;;2.13;0.90;;;10.40;99.90;;;;;;5091247;28;20340;-77
2023/12/21 11:34:13;;;;;;;5.25;3.22;;;10.40;99.90;;;;;;5072161;28;20228;-83
2023/12/21 11:36:41;;;;;;;2.03;1.77;;;10.40;99.90;;;;;;5089485;28;20219;-83
2023/12/21 11:39:13;;;;;;;1.33;1.20;;;10.50;99.90;;;;;;5092341;28;20234;-83
2023/12/21 11:41:56;;;;;;;1.02;0.80;;;10.40;99.90;;;;;;5092655;28;20219;-83
2023/12/21 11:44:23;;;;;;;3.88;1.20;;;10.50;99.90;;;;;;5092688;28;20226;-84
2023/12/21 11:46:51;;;;;;;2.65;2.10;;;10.50;99.90;;;;;;5092625;28;20227;-77
2023/12/21 11:49:24;;;;;;;4.13;3.67;;;10.60;99.90;;;;;;5093124;28;20231;-78
2023/12/21 11:51:52;;;;;;;2.45;1.80;;;10.60;99.90;;;;;;5078971;28;20224;-77
2023/12/21 11:54:25;;;;;;;3.85;2.95;;;10.60;99.90;;;;;;5078877;28;20215;-78
2023/12/21 11:56:55;;;;;;;3.92;1.95;;;10.60;99.90;;;;;;5092478;28;20227;-78
2023/12/21 11:59:23;;;;;;;1.55;1.45;;;10.60;99.90;;;;;;5093076;28;20302;-77
2023/12/21 12:01:51;;;;;;;2.95;2.40;;;10.60;99.90;;;;;;5095556;28;20215;-77
2023/12/21 12:04:18;;;;;;;2.30;1.30;;;10.60;99.90;;;;;;5096488;28;20223;-78
2023/12/21 12:06:49;;;;;;;1.92;1.83;;;10.70;99.90;;;;;;5096893;28;20291;-77
2023/12/21 12:09:19;;;;;;;3.00;2.50;;;10.60;99.90;;;;;;5096067;28;20227;-78
2023/12/21 12:11:46;;;;;;;3.25;2.95;;;10.70;99.90;;;;;;5097144;28;20227;-83
2023/12/21 12:14:16;;;;;;;5.53;3.90;;;10.70;99.90;;;;;;5096800;28;20234;-83
2023/12/21 12:16:43;;;;;;;5.63;4.10;;;10.70;99.90;;;;;;5097211;28;20266;-83
2023/12/21 12:19:12;;;;;;;2.70;2.50;;;10.70;99.90;;;;;;5096650;28;20684;-78
2023/12/21 12:21:39;;;;;;;2.55;1.95;;;10.70;99.90;;;;;;5096327;28;20548;-78
2023/12/21 12:24:07;;;;;;;4.55;3.20;;;10.70;99.90;;;;;;5096417;28;20238;-78
2023/12/21 12:26:35;;;;;;;2.60;2.20;;;10.70;99.90;;;;;;5095474;28;20219;-78
2023/12/21 12:29:02;;;;;;;9.13;7.25;;;10.80;99.90;;;;;;5095978;28;20635;-83
2023/12/21 12:31:30;;;;;;;5.63;4.50;;;10.70;99.90;;;;;;5095661;28;20219;-84
2023/12/21 12:33:57;;;;;;;9.48;7.88;;;10.70;99.90;;;;;;5086008;28;20242;-85
2023/12/21 12:36:25;;;;;;;5.90;4.45;;;10.70;99.90;;;;;;5094744;28;20230;-79
2023/12/21 12:38:55;;;;;;;2.50;2.05;;;10.70;99.90;;;;;;5104874;28;20253;-79
2023/12/21 12:41:26;;;;;;;4.97;3.20;;;10.70;99.90;;;;;;5115670;28;20233;-77
2023/12/21 12:43:53;;;;;;;4.85;3.42;;;10.70;99.90;;;;;;5116635;28;20226;-77
2023/12/21 12:46:21;;;;;;;4.22;2.65;;;10.80;99.90;;;;;;5116285;28;20226;-79
2023/12/21 12:48:50;;;;;;;4.65;3.38;;;10.80;99.90;;;;;;5116349;28;20303;-77
2023/12/21 12:51:26;;;;;;;3.10;2.63;;;10.80;99.90;;;;;;5116519;28;20293;-78
2023/12/21 12:53:54;;;;;;;3.20;2.70;;;10.80;99.90;;;;;;5115930;28;20221;-78
2023/12/21 12:56:21;;;;;;;2.10;1.85;;;10.80;99.90;;;;;;5122395;28;20668;-83
2023/12/21 12:58:48;;;;;;;2.53;1.92;;;10.80;99.90;;;;;;5124569;28;20250;-83
2023/12/21 13:01:16;;;;;;;6.72;3.42;;;10.90;99.90;;;;;;5135328;28;20677;-83
2023/12/21 13:03:46;;;;;;;4.43;3.90;;;10.90;99.90;;;;;;5109722;28;20293;-83